createdAt,value
2022-12-17T00:00:16.538Z,31.00
2022-12-17T00:01:16.462Z,18.40
2022-12-17T00:02:16.574Z,23.00
2022-12-17T00:03:16.639Z,29.80
2022-12-17T00:04:16.534Z,20.80
2022-12-17T00:05:16.395Z,20.60
2022-12-17T00:06:16.388Z,18.00
2022-12-17T00:07:16.374Z,18.00
2022-12-17T00:08:16.595Z,22.60
2022-12-17T00:09:16.354Z,25.00
2022-12-17T00:10:16.348Z,20.90
2022-12-17T00:11:16.332Z,30.10
2022-12-17T00:12:16.341Z,28.40
2022-12-17T00:13:16.402Z,27.00
2022-12-17T00:14:16.313Z,21.80
2022-12-17T00:15:16.289Z,11.80
2022-12-17T00:16:16.354Z,12.30
2022-12-17T00:17:16.307Z,12.20
2022-12-17T00:18:16.258Z,21.90
2022-12-17T00:19:16.266Z,15.50
2022-12-17T00:20:16.237Z,23.00
2022-12-17T00:21:16.223Z,17.80
2022-12-17T00:22:16.214Z,18.40
2022-12-17T00:23:16.202Z,12.70
2022-12-17T00:24:16.204Z,18.60
2022-12-17T00:25:16.183Z,16.70
2022-12-17T00:26:16.175Z,19.20
2022-12-17T00:27:16.161Z,25.70
2022-12-17T00:28:16.153Z,20.10
2022-12-17T00:29:16.140Z,17.80
2022-12-17T00:30:16.143Z,27.50
2022-12-17T00:31:16.162Z,26.10
2022-12-17T00:32:16.106Z,22.40
2022-12-17T00:33:16.132Z,17.90
2022-12-17T00:34:16.099Z,19.50
2022-12-17T00:35:16.082Z,10.50
2022-12-17T00:36:16.068Z,15.70
2022-12-17T00:37:16.053Z,17.80
2022-12-17T00:38:16.048Z,16.60
2022-12-17T00:39:16.037Z,13.00
2022-12-17T00:40:16.042Z,9.30
2022-12-17T00:41:16.012Z,6.00
2022-12-17T00:42:16.002Z,4.10
2022-12-17T00:43:15.986Z,4.60
2022-12-17T00:44:15.982Z,6.20
2022-12-17T00:45:15.972Z,5.60
2022-12-17T00:46:16.024Z,8.90
2022-12-17T00:47:15.957Z,9.10
2022-12-17T00:48:15.932Z,5.20
2022-12-17T00:49:15.952Z,29.00
2022-12-17T00:50:15.918Z,26.60
2022-12-17T00:51:15.902Z,26.60
2022-12-17T00:52:16.780Z,29.40
2022-12-17T00:53:15.894Z,35.30
2022-12-17T00:54:15.874Z,34.00
2022-12-17T00:55:15.858Z,32.50
2022-12-17T00:56:15.850Z,37.80
2022-12-17T00:57:15.854Z,41.70
2022-12-17T00:58:15.829Z,46.30
2022-12-17T00:59:15.819Z,46.30
2022-12-17T01:00:15.807Z,54.80
2022-12-17T01:01:15.943Z,52.40
2022-12-17T01:02:15.935Z,56.30
2022-12-17T01:03:15.795Z,45.60
2022-12-17T01:04:15.768Z,57.50
2022-12-17T01:05:15.786Z,54.40
2022-12-17T01:06:15.744Z,41.10
2022-12-17T01:07:15.751Z,43.70
2022-12-17T01:08:15.723Z,36.60
2022-12-17T01:09:15.710Z,29.80
2022-12-17T01:10:15.700Z,16.70
2022-12-17T01:11:15.693Z,21.70
2022-12-17T01:12:15.677Z,16.30
2022-12-17T01:13:15.676Z,17.80
2022-12-17T01:14:15.665Z,17.80
2022-12-17T01:15:15.647Z,33.30
2022-12-17T01:16:15.684Z,31.30
2022-12-17T01:17:15.627Z,33.90
2022-12-17T01:18:15.621Z,23.00
2022-12-17T01:19:15.792Z,11.70
2022-12-17T01:20:15.598Z,11.50
2022-12-17T01:21:15.640Z,12.50
2022-12-17T01:22:15.571Z,16.90
2022-12-17T01:23:15.565Z,17.50
2022-12-17T01:24:15.558Z,23.80
2022-12-17T01:25:15.543Z,31.90
2022-12-17T01:26:15.533Z,36.30
2022-12-17T01:27:15.528Z,31.40
2022-12-17T01:28:15.520Z,36.20
2022-12-17T01:29:15.496Z,26.90
2022-12-17T01:30:15.490Z,23.90
2022-12-17T01:31:15.502Z,30.30
2022-12-17T01:32:15.471Z,34.20
2022-12-17T01:33:15.453Z,26.30
2022-12-17T01:34:15.460Z,30.20
2022-12-17T01:35:15.452Z,24.00
2022-12-17T01:36:15.420Z,21.20
2022-12-17T01:37:15.441Z,19.30
2022-12-17T01:38:15.403Z,10.60
2022-12-17T01:39:15.394Z,14.20
2022-12-17T01:40:15.390Z,11.90
2022-12-17T01:41:15.381Z,17.20
2022-12-17T01:42:15.360Z,15.70
2022-12-17T01:43:15.346Z,16.70
2022-12-17T01:44:15.345Z,17.50
2022-12-17T01:45:15.331Z,21.90
2022-12-17T01:46:15.450Z,18.50
2022-12-17T01:47:15.308Z,14.60
2022-12-17T01:48:15.297Z,20.90
2022-12-17T01:49:15.291Z,22.10
2022-12-17T01:50:15.278Z,21.30
2022-12-17T01:51:15.274Z,23.80
2022-12-17T01:52:15.255Z,19.70
2022-12-17T01:53:15.264Z,21.40
2022-12-17T01:54:15.440Z,20.10
2022-12-17T01:55:15.238Z,14.80
2022-12-17T01:56:15.229Z,18.00
2022-12-17T01:57:15.211Z,20.80
2022-12-17T01:58:15.199Z,16.00
2022-12-17T01:59:15.180Z,17.80
2022-12-17T02:00:15.169Z,17.10
2022-12-17T02:01:15.281Z,17.50
2022-12-17T02:02:15.334Z,17.60
2022-12-17T02:03:15.218Z,18.00
2022-12-17T02:04:15.123Z,19.00
2022-12-17T02:05:15.116Z,20.20
2022-12-17T02:06:15.109Z,23.80
2022-12-17T02:07:15.136Z,17.80
2022-12-17T02:08:15.102Z,17.60
2022-12-17T02:09:15.119Z,21.80
2022-12-17T02:10:15.077Z,25.40
2022-12-17T02:11:15.057Z,27.60
2022-12-17T02:12:15.044Z,23.80
2022-12-17T02:13:15.045Z,19.30
2022-12-17T02:14:15.033Z,24.70
2022-12-17T02:15:15.013Z,24.30
2022-12-17T02:16:15.025Z,14.00
2022-12-17T02:17:14.994Z,17.50
2022-12-17T02:18:14.989Z,13.70
2022-12-17T02:19:14.963Z,18.50
2022-12-17T02:20:14.961Z,17.60
2022-12-17T02:21:14.947Z,19.60
2022-12-17T02:22:14.935Z,20.70
2022-12-17T02:23:14.921Z,34.30
2022-12-17T02:24:14.924Z,30.50
2022-12-17T02:25:14.928Z,25.50
2022-12-17T02:26:14.896Z,28.10
2022-12-17T02:27:14.891Z,25.00
2022-12-17T02:28:14.877Z,23.30
2022-12-17T02:29:14.862Z,23.20
2022-12-17T02:30:14.862Z,22.00
2022-12-17T02:31:14.939Z,27.80
2022-12-17T02:32:14.833Z,33.80
2022-12-17T02:33:14.827Z,33.00
2022-12-17T02:34:14.809Z,31.00
2022-12-17T02:35:14.799Z,17.90
2022-12-17T02:36:14.796Z,14.60
2022-12-17T02:37:14.776Z,18.60
2022-12-17T02:38:14.766Z,25.80
2022-12-17T02:39:14.763Z,8.70
2022-12-17T02:40:14.743Z,11.50
2022-12-17T02:41:14.761Z,21.90
2022-12-17T02:42:14.735Z,22.50
2022-12-17T02:43:14.708Z,15.90
2022-12-17T02:44:14.700Z,18.50
2022-12-17T02:45:14.688Z,17.90
2022-12-17T02:46:14.778Z,15.70
2022-12-17T02:47:14.680Z,25.90
2022-12-17T02:48:14.662Z,25.50
2022-12-17T02:49:14.654Z,36.20
2022-12-17T02:50:14.636Z,30.60
2022-12-17T02:51:14.631Z,32.60
2022-12-17T02:52:14.629Z,33.00
2022-12-17T02:53:14.603Z,35.80
2022-12-17T02:54:14.598Z,36.00
2022-12-17T02:55:14.583Z,24.90
2022-12-17T02:56:14.590Z,26.90
2022-12-17T02:57:14.587Z,41.00
2022-12-17T02:58:14.554Z,38.10
2022-12-17T02:59:14.539Z,32.90
2022-12-17T03:00:14.533Z,31.40
2022-12-17T03:01:14.616Z,33.00
2022-12-17T03:02:14.653Z,43.10
2022-12-17T03:03:14.565Z,28.20
2022-12-17T03:04:14.485Z,40.60
2022-12-17T03:05:42.876Z,28.90
2022-12-17T03:06:15.464Z,20.60
2022-12-17T03:07:14.467Z,40.30
2022-12-17T03:08:14.447Z,44.50
2022-12-17T03:09:14.437Z,31.60
2022-12-17T03:10:14.428Z,46.60
2022-12-17T03:11:14.426Z,33.70
2022-12-17T03:12:14.410Z,34.90
2022-12-17T03:13:14.439Z,40.90
2022-12-17T03:14:14.385Z,48.60
2022-12-17T03:15:14.372Z,36.70
2022-12-17T03:16:14.413Z,41.80
2022-12-17T03:17:14.414Z,45.10
2022-12-17T03:18:14.349Z,17.50
2022-12-17T03:19:14.329Z,22.00
2022-12-17T03:20:14.323Z,24.60
2022-12-17T03:21:14.310Z,12.40
2022-12-17T03:22:14.308Z,25.00
2022-12-17T03:23:14.291Z,31.20
2022-12-17T03:24:14.278Z,33.50
2022-12-17T03:25:14.275Z,29.60
2022-12-17T03:26:14.254Z,22.80
2022-12-17T03:27:14.252Z,24.10
2022-12-17T03:28:14.246Z,26.10
2022-12-17T03:29:14.255Z,36.70
2022-12-17T03:30:14.226Z,30.90
2022-12-17T03:31:14.262Z,27.10
2022-12-17T03:32:14.198Z,27.60
2022-12-17T03:33:14.191Z,33.50
2022-12-17T03:34:14.179Z,27.10
2022-12-17T03:35:14.175Z,26.30
2022-12-17T03:36:14.177Z,28.20
2022-12-17T03:37:14.149Z,28.40
2022-12-17T03:38:14.137Z,26.30
2022-12-17T03:39:14.133Z,30.80
2022-12-17T03:40:14.123Z,25.40
2022-12-17T03:41:14.104Z,15.40
2022-12-17T03:42:14.090Z,12.90
2022-12-17T03:43:14.188Z,19.40
2022-12-17T03:44:14.076Z,13.50
2022-12-17T03:45:14.092Z,19.00
2022-12-17T03:46:14.153Z,21.00
2022-12-17T03:47:14.090Z,14.90
2022-12-17T03:48:14.027Z,16.40
2022-12-17T03:49:14.031Z,17.00
2022-12-17T03:50:14.017Z,28.60
2022-12-17T03:51:13.997Z,25.90
2022-12-17T03:52:13.983Z,23.00
2022-12-17T03:53:14.086Z,22.90
2022-12-17T03:54:13.975Z,20.10
2022-12-17T03:55:13.951Z,20.80
2022-12-17T03:56:13.953Z,18.20
2022-12-17T03:57:16.202Z,13.40
2022-12-17T03:58:13.924Z,17.50
2022-12-17T03:59:13.914Z,13.00
2022-12-17T04:00:13.908Z,9.20
2022-12-17T04:01:14.061Z,15.50
2022-12-17T04:02:14.099Z,17.20
2022-12-17T04:03:13.936Z,21.40
2022-12-17T04:04:13.859Z,14.80
2022-12-17T04:05:19.719Z,10.80
2022-12-17T04:06:14.841Z,11.50
2022-12-17T04:07:13.837Z,12.70
2022-12-17T04:08:13.824Z,8.30
2022-12-17T04:09:13.810Z,12.90
2022-12-17T04:10:13.796Z,19.90
2022-12-17T04:11:13.802Z,16.30
2022-12-17T04:12:13.793Z,16.00
2022-12-17T04:13:13.764Z,17.10
2022-12-17T04:14:13.758Z,23.50
2022-12-17T04:15:13.746Z,19.40
2022-12-17T04:16:13.877Z,21.10
2022-12-17T04:17:13.748Z,16.20
2022-12-17T04:18:13.758Z,28.00
2022-12-17T04:19:13.704Z,35.00
2022-12-17T04:20:13.690Z,34.20
2022-12-17T04:21:13.680Z,33.90
2022-12-17T04:22:13.667Z,30.70
2022-12-17T04:23:13.659Z,25.70
2022-12-17T04:24:13.655Z,25.50
2022-12-17T04:25:13.638Z,22.90
2022-12-17T04:26:13.630Z,20.70
2022-12-17T04:27:13.617Z,18.40
2022-12-17T04:28:13.619Z,17.50
2022-12-17T04:29:13.644Z,14.60
2022-12-17T04:30:13.595Z,13.20
2022-12-17T04:31:13.673Z,12.90
2022-12-17T04:32:13.561Z,17.10
2022-12-17T04:33:13.582Z,23.30
2022-12-17T04:34:13.555Z,21.90
2022-12-17T04:35:13.529Z,23.60
2022-12-17T04:36:13.524Z,19.80
2022-12-17T04:37:13.514Z,27.80
2022-12-17T04:38:13.511Z,26.50
2022-12-17T04:39:13.510Z,20.50
2022-12-17T04:40:13.488Z,20.50
2022-12-17T04:41:13.481Z,25.90
2022-12-17T04:42:13.461Z,22.90
2022-12-17T04:43:13.465Z,26.80
2022-12-17T04:44:13.438Z,26.50
2022-12-17T04:45:13.426Z,33.50
2022-12-17T04:46:13.471Z,34.10
2022-12-17T04:47:13.405Z,34.60
2022-12-17T04:48:13.413Z,31.60
2022-12-17T04:49:13.410Z,34.60
2022-12-17T04:50:13.373Z,29.10
2022-12-17T04:51:13.365Z,28.40
2022-12-17T04:52:13.351Z,28.60
2022-12-17T04:53:13.339Z,25.20
2022-12-17T04:54:13.341Z,19.00
2022-12-17T04:55:13.331Z,17.50
2022-12-17T04:56:13.310Z,23.10
2022-12-17T04:57:13.302Z,18.60
2022-12-17T04:58:13.292Z,32.00
2022-12-17T04:59:13.289Z,25.80
2022-12-17T05:00:13.287Z,32.20
2022-12-17T05:01:13.410Z,28.50
2022-12-17T05:02:13.336Z,26.60
2022-12-17T05:03:13.286Z,26.20
2022-12-17T05:04:13.226Z,23.30
2022-12-17T05:05:13.332Z,33.70
2022-12-17T05:06:13.215Z,25.70
2022-12-17T05:07:13.200Z,22.50
2022-12-17T05:08:13.200Z,13.90
2022-12-17T05:09:13.168Z,14.80
2022-12-17T05:10:13.177Z,17.00
2022-12-17T05:11:13.153Z,14.00
2022-12-17T05:12:13.140Z,16.40
2022-12-17T05:13:13.127Z,13.20
2022-12-17T05:14:13.115Z,15.90
2022-12-17T05:15:13.116Z,22.90
2022-12-17T05:16:13.130Z,20.90
2022-12-17T05:17:13.084Z,24.60
2022-12-17T05:18:13.077Z,24.50
2022-12-17T05:19:13.068Z,24.70
2022-12-17T05:20:13.067Z,24.60
2022-12-17T05:21:13.121Z,22.00
2022-12-17T05:22:13.039Z,30.20
2022-12-17T05:23:13.032Z,25.80
2022-12-17T05:24:13.014Z,18.50
2022-12-17T05:25:13.001Z,18.30
2022-12-17T05:26:13.051Z,20.90
2022-12-17T05:27:12.980Z,21.30
2022-12-17T05:28:12.969Z,23.00
2022-12-17T05:29:16.027Z,25.70
2022-12-17T05:30:12.949Z,29.20
2022-12-17T05:31:13.098Z,35.30
2022-12-17T05:32:12.937Z,36.40
2022-12-17T05:33:12.911Z,39.00
2022-12-17T05:34:12.905Z,33.40
2022-12-17T05:35:12.892Z,36.60
2022-12-17T05:36:12.881Z,34.60
2022-12-17T05:37:12.909Z,27.90
2022-12-17T05:38:12.868Z,28.70
2022-12-17T05:39:12.854Z,28.70
2022-12-17T05:40:13.002Z,31.70
2022-12-17T05:41:12.831Z,18.20
2022-12-17T05:42:12.817Z,21.60
2022-12-17T05:43:12.831Z,13.60
2022-12-17T05:44:12.800Z,18.20
2022-12-17T05:45:12.800Z,23.60
2022-12-17T05:46:12.843Z,32.50
2022-12-17T05:47:12.771Z,28.80
2022-12-17T05:48:12.767Z,25.60
2022-12-17T05:49:12.749Z,32.10
2022-12-17T05:50:12.732Z,30.10
2022-12-17T05:51:12.733Z,32.50
2022-12-17T05:52:12.733Z,35.50
2022-12-17T05:53:12.734Z,32.30
2022-12-17T05:54:12.687Z,30.00
2022-12-17T05:55:12.682Z,30.20
2022-12-17T05:56:12.670Z,26.30
2022-12-17T05:57:12.659Z,14.80
2022-12-17T05:58:12.661Z,14.40
2022-12-17T05:59:12.639Z,11.50
2022-12-17T06:00:12.625Z,14.20
2022-12-17T06:01:12.646Z,18.40
2022-12-17T06:02:12.604Z,16.50
2022-12-17T06:03:12.714Z,19.90
2022-12-17T06:04:12.663Z,21.30
2022-12-17T06:05:12.573Z,23.20
2022-12-17T06:06:12.557Z,25.60
2022-12-17T06:07:12.548Z,21.90
2022-12-17T06:08:12.538Z,19.70
2022-12-17T06:09:12.565Z,22.90
2022-12-17T06:10:12.524Z,18.10
2022-12-17T06:11:12.508Z,19.90
2022-12-17T06:12:12.499Z,6.90
2022-12-17T06:13:12.497Z,8.20
2022-12-17T06:14:12.474Z,13.80
2022-12-17T06:15:12.462Z,10.30
2022-12-17T06:16:12.504Z,8.00
2022-12-17T06:17:12.444Z,10.90
2022-12-17T06:18:16.661Z,17.30
2022-12-17T06:19:12.426Z,16.60
2022-12-17T06:20:12.436Z,17.20
2022-12-17T06:21:12.400Z,15.30
2022-12-17T06:22:12.396Z,18.20
2022-12-17T06:23:12.388Z,17.40
2022-12-17T06:24:12.383Z,15.40
2022-12-17T06:25:12.398Z,15.60
2022-12-17T06:26:12.349Z,14.60
2022-12-17T06:27:12.338Z,14.40
2022-12-17T06:28:12.328Z,10.30
2022-12-17T06:29:12.334Z,11.00
2022-12-17T06:30:18.344Z,12.00
2022-12-17T06:31:13.407Z,8.20
2022-12-17T06:32:12.282Z,11.30
2022-12-17T06:33:12.275Z,12.90
2022-12-17T06:34:12.345Z,13.60
2022-12-17T06:35:12.263Z,12.50
2022-12-17T06:36:18.081Z,11.60
2022-12-17T06:37:13.227Z,15.00
2022-12-17T06:38:12.232Z,11.00
2022-12-17T06:39:12.212Z,11.60
2022-12-17T06:40:12.210Z,10.60
2022-12-17T06:41:12.217Z,9.50
2022-12-17T06:42:12.176Z,8.00
2022-12-17T06:43:12.175Z,8.90
2022-12-17T06:44:12.156Z,7.90
2022-12-17T06:45:12.147Z,10.20
2022-12-17T06:46:12.201Z,10.00
2022-12-17T06:47:12.201Z,13.50
2022-12-17T06:48:12.112Z,9.60
2022-12-17T06:49:12.106Z,9.90
2022-12-17T06:50:12.091Z,8.60
2022-12-17T06:51:12.100Z,8.00
2022-12-17T06:52:12.072Z,8.30
2022-12-17T06:53:12.061Z,7.40
2022-12-17T06:54:12.050Z,7.00
2022-12-17T06:55:12.042Z,8.80
2022-12-17T06:56:12.054Z,6.00
2022-12-17T06:57:12.053Z,6.90
2022-12-17T06:58:12.007Z,6.30
2022-12-17T06:59:11.996Z,9.20
2022-12-17T07:00:11.985Z,7.40
2022-12-17T07:01:12.165Z,8.20
2022-12-17T07:02:12.111Z,7.10
2022-12-17T07:03:14.831Z,6.60
2022-12-17T07:04:11.943Z,5.40
2022-12-17T07:05:11.937Z,6.50
2022-12-17T07:06:11.922Z,10.10
2022-12-17T07:07:11.921Z,7.40
2022-12-17T07:08:11.912Z,7.60
2022-12-17T07:09:11.893Z,7.00
2022-12-17T07:10:14.385Z,6.90
2022-12-17T07:11:11.870Z,8.30
2022-12-17T07:12:11.920Z,6.90
2022-12-17T07:13:11.884Z,7.70
2022-12-17T07:14:11.833Z,7.60
2022-12-17T07:15:11.829Z,9.40
2022-12-17T07:16:11.927Z,9.50
2022-12-17T07:17:11.829Z,7.60
2022-12-17T07:18:11.795Z,6.70
2022-12-17T07:19:11.794Z,7.20
2022-12-17T07:20:11.776Z,9.30
2022-12-17T07:21:11.764Z,8.30
2022-12-17T07:22:11.751Z,9.30
2022-12-17T07:23:11.750Z,10.60
2022-12-17T07:24:11.742Z,14.10
2022-12-17T07:25:11.723Z,10.10
2022-12-17T07:26:11.707Z,12.60
2022-12-17T07:27:11.698Z,14.40
2022-12-17T07:28:11.688Z,13.90
2022-12-17T07:29:11.720Z,13.00
2022-12-17T07:30:11.675Z,12.00
2022-12-17T07:31:11.765Z,12.20
2022-12-17T07:32:11.750Z,7.90
2022-12-17T07:33:11.634Z,7.80
2022-12-17T07:34:11.624Z,7.10
2022-12-17T07:35:11.608Z,7.20
2022-12-17T07:36:11.599Z,8.30
2022-12-17T07:37:14.898Z,7.90
2022-12-17T07:38:12.590Z,7.50
2022-12-17T07:39:11.572Z,7.20
2022-12-17T07:40:11.562Z,8.10
2022-12-17T07:41:11.545Z,7.60
2022-12-17T07:42:11.537Z,7.10
2022-12-17T07:43:11.526Z,8.60
2022-12-17T07:44:11.527Z,8.60
2022-12-17T07:45:11.535Z,7.50
2022-12-17T07:46:11.552Z,8.10
2022-12-17T07:47:11.480Z,9.40
2022-12-17T07:48:11.482Z,10.50
2022-12-17T07:49:11.545Z,7.90
2022-12-17T07:50:11.470Z,8.10
2022-12-17T07:51:11.439Z,9.90
2022-12-17T07:52:11.430Z,7.20
2022-12-17T07:53:11.418Z,7.90
2022-12-17T07:54:11.413Z,7.30
2022-12-17T07:55:16.717Z,6.90
2022-12-17T07:56:12.386Z,7.40
2022-12-17T07:57:11.390Z,7.80
2022-12-17T07:58:11.363Z,8.30
2022-12-17T07:59:11.368Z,8.70
2022-12-17T08:00:11.344Z,8.40
2022-12-17T08:01:11.400Z,8.50
2022-12-17T08:02:11.613Z,7.80
2022-12-17T08:03:11.384Z,7.40
2022-12-17T08:04:11.299Z,11.50
2022-12-17T08:05:11.289Z,11.40
2022-12-17T08:06:11.278Z,14.10
2022-12-17T08:07:14.178Z,9.90
2022-12-17T08:08:11.260Z,9.40
2022-12-17T08:09:11.270Z,10.60
2022-12-17T08:10:11.240Z,15.00
2022-12-17T08:11:11.226Z,14.40
2022-12-17T08:12:11.219Z,15.60
2022-12-17T08:13:14.170Z,17.70
2022-12-17T08:14:11.196Z,17.70
2022-12-17T08:15:11.186Z,16.40
2022-12-17T08:16:11.187Z,15.70
2022-12-17T08:17:11.197Z,16.20
2022-12-17T08:18:11.157Z,16.70
2022-12-17T08:19:11.159Z,13.70
2022-12-17T08:20:11.132Z,12.40
2022-12-17T08:21:11.126Z,10.30
2022-12-17T08:22:11.109Z,9.30
2022-12-17T08:23:11.174Z,11.50
2022-12-17T08:24:11.129Z,10.90
2022-12-17T08:25:11.106Z,12.40
2022-12-17T08:26:11.074Z,9.40
2022-12-17T08:27:11.063Z,8.20
2022-12-17T08:28:26.935Z,8.90
2022-12-17T08:29:12.153Z,8.10
2022-12-17T08:30:11.028Z,9.10
2022-12-17T08:31:11.074Z,7.40
2022-12-17T08:32:11.005Z,8.00
2022-12-17T08:33:11.026Z,7.00
2022-12-17T08:34:10.998Z,7.20
2022-12-17T08:35:10.986Z,8.20
2022-12-17T08:36:10.965Z,8.70
2022-12-17T08:37:10.956Z,15.80
2022-12-17T08:38:10.943Z,14.40
2022-12-17T08:39:10.931Z,10.00
2022-12-17T08:40:10.927Z,10.20
2022-12-17T08:41:10.921Z,12.60
2022-12-17T08:42:10.899Z,9.60
2022-12-17T08:43:10.890Z,8.50
2022-12-17T08:44:10.880Z,9.40
2022-12-17T08:45:10.866Z,8.30
2022-12-17T08:46:10.953Z,9.40
2022-12-17T08:47:10.844Z,8.50
2022-12-17T08:48:10.836Z,8.40
2022-12-17T08:49:10.849Z,9.70
2022-12-17T08:50:10.818Z,11.60
2022-12-17T08:51:10.805Z,9.40
2022-12-17T08:52:10.813Z,11.80
2022-12-17T08:53:10.787Z,10.90
2022-12-17T08:54:10.776Z,15.90
2022-12-17T08:55:10.765Z,11.80
2022-12-17T08:56:10.757Z,10.30
2022-12-17T08:57:10.747Z,10.80
2022-12-17T08:58:10.749Z,9.90
2022-12-17T08:59:10.762Z,10.70
2022-12-17T09:00:10.754Z,10.20
2022-12-17T09:01:10.816Z,8.40
2022-12-17T09:02:10.886Z,8.90
2022-12-17T09:03:10.731Z,9.40
2022-12-17T09:04:10.672Z,7.70
2022-12-17T09:05:10.688Z,7.50
2022-12-17T09:06:10.650Z,8.50
2022-12-17T09:07:10.642Z,7.40
2022-12-17T09:08:10.629Z,6.80
2022-12-17T09:09:10.640Z,8.10
2022-12-17T09:10:10.621Z,8.80
2022-12-17T09:11:10.603Z,9.10
2022-12-17T09:12:10.589Z,8.00
2022-12-17T09:13:10.587Z,7.00
2022-12-17T09:14:10.564Z,7.30
2022-12-17T09:15:10.554Z,5.40
2022-12-17T09:16:10.639Z,5.30
2022-12-17T09:17:10.616Z,6.50
2022-12-17T09:18:10.537Z,5.00
2022-12-17T09:19:10.570Z,6.90
2022-12-17T09:20:10.499Z,8.20
2022-12-17T09:21:10.525Z,6.90
2022-12-17T09:22:10.485Z,5.50
2022-12-17T09:23:10.485Z,5.60
2022-12-17T09:24:10.456Z,5.40
2022-12-17T09:25:10.448Z,5.60
2022-12-17T09:26:10.437Z,4.70
2022-12-17T09:27:10.427Z,5.20
2022-12-17T09:28:10.421Z,4.40
2022-12-17T09:29:10.442Z,4.80
2022-12-17T09:30:10.422Z,4.90
2022-12-17T09:31:10.453Z,4.80
2022-12-17T09:32:10.389Z,4.80
2022-12-17T09:33:10.367Z,4.30
2022-12-17T09:34:10.375Z,4.80
2022-12-17T09:35:10.352Z,4.80
2022-12-17T09:36:10.332Z,4.70
2022-12-17T09:37:10.350Z,4.90
2022-12-17T09:38:10.315Z,4.90
2022-12-17T09:39:10.367Z,5.10
2022-12-17T09:40:10.296Z,5.60
2022-12-17T09:41:10.465Z,6.00
2022-12-17T09:42:10.274Z,5.70
2022-12-17T09:43:10.265Z,5.60
2022-12-17T09:44:10.279Z,6.30
2022-12-17T09:45:10.243Z,7.00
2022-12-17T09:46:10.297Z,8.50
2022-12-17T09:47:10.231Z,8.00
2022-12-17T09:48:10.211Z,7.90
2022-12-17T09:49:10.239Z,7.90
2022-12-17T09:50:10.197Z,8.70
2022-12-17T09:51:10.176Z,9.00
2022-12-17T09:52:10.167Z,9.40
2022-12-17T09:53:10.187Z,9.60
2022-12-17T09:54:10.144Z,9.70
2022-12-17T09:55:10.133Z,15.60
2022-12-17T09:56:10.139Z,17.60
2022-12-17T09:57:10.116Z,23.90
2022-12-17T09:58:10.108Z,28.40
2022-12-17T09:59:10.136Z,23.50
2022-12-17T10:00:10.085Z,19.80
2022-12-17T10:01:10.124Z,17.60
2022-12-17T10:02:10.294Z,21.30
2022-12-17T10:03:10.107Z,10.50
2022-12-17T10:04:10.061Z,9.20
2022-12-17T10:05:10.036Z,8.20
2022-12-17T10:06:10.021Z,8.10
2022-12-17T10:07:10.011Z,8.20
2022-12-17T10:08:10.009Z,8.70
2022-12-17T10:09:10.042Z,9.80
2022-12-17T10:10:10.009Z,9.80
2022-12-17T10:11:09.985Z,9.30
2022-12-17T10:12:09.969Z,8.20
2022-12-17T10:13:09.959Z,3.60
2022-12-17T10:14:09.970Z,5.90
2022-12-17T10:15:09.931Z,8.20
2022-12-17T10:16:09.975Z,6.00
2022-12-17T10:17:12.069Z,12.40
2022-12-17T10:18:09.890Z,10.10
2022-12-17T10:19:09.976Z,9.60
2022-12-17T10:20:09.874Z,9.80
2022-12-17T10:21:09.867Z,10.30
2022-12-17T10:22:09.854Z,10.40
2022-12-17T10:23:09.950Z,10.00
2022-12-17T10:24:14.052Z,10.30
2022-12-17T10:25:10.840Z,9.70
2022-12-17T10:26:09.808Z,10.50
2022-12-17T10:27:09.796Z,11.00
2022-12-17T10:28:09.812Z,10.50
2022-12-17T10:29:09.788Z,10.00
2022-12-17T10:30:09.768Z,9.50
2022-12-17T10:31:09.816Z,10.30
2022-12-17T10:32:09.772Z,9.70
2022-12-17T10:33:09.739Z,10.10
2022-12-17T10:34:09.756Z,10.20
2022-12-17T10:35:09.714Z,10.00
2022-12-17T10:36:09.708Z,10.10
2022-12-17T10:37:09.710Z,10.30
2022-12-17T10:38:09.686Z,10.40
2022-12-17T10:39:09.802Z,10.20
2022-12-17T10:40:09.672Z,11.00
2022-12-17T10:41:09.728Z,10.70
2022-12-17T10:42:09.644Z,10.20
2022-12-17T10:43:09.640Z,10.90
2022-12-17T10:44:09.701Z,10.70
2022-12-17T10:45:09.610Z,10.30
2022-12-17T10:46:09.648Z,10.20
2022-12-17T10:47:09.588Z,9.60
2022-12-17T10:48:09.574Z,9.70
2022-12-17T10:49:11.619Z,8.90
2022-12-17T10:50:09.555Z,10.70
2022-12-17T10:51:09.543Z,9.00
2022-12-17T10:52:09.534Z,8.10
2022-12-17T10:53:09.535Z,7.20
2022-12-17T10:54:09.628Z,9.10
2022-12-17T10:55:09.500Z,8.30
2022-12-17T10:56:09.491Z,7.40
2022-12-17T10:57:09.513Z,7.60
2022-12-17T10:58:09.531Z,5.70
2022-12-17T10:59:09.456Z,4.80
2022-12-17T11:00:09.467Z,5.60
2022-12-17T11:01:09.543Z,5.30
2022-12-17T11:02:09.578Z,4.20
2022-12-17T11:03:09.541Z,4.50
2022-12-17T11:04:09.517Z,5.60
2022-12-17T11:05:09.396Z,5.50
2022-12-17T11:06:09.394Z,5.40
2022-12-17T11:07:09.371Z,5.20
2022-12-17T11:08:09.362Z,4.90
2022-12-17T11:09:09.354Z,4.60
2022-12-17T11:10:10.123Z,3.20
2022-12-17T11:11:09.332Z,3.80
2022-12-17T11:12:09.333Z,3.70
2022-12-17T11:13:09.338Z,3.60
2022-12-17T11:14:09.387Z,4.20
2022-12-17T11:15:09.293Z,3.70
2022-12-17T11:16:09.375Z,4.40
2022-12-17T11:17:09.267Z,4.60
2022-12-17T11:18:11.646Z,4.10
2022-12-17T11:19:09.249Z,4.80
2022-12-17T11:20:09.244Z,5.70
2022-12-17T11:21:09.239Z,5.30
2022-12-17T11:22:09.218Z,4.90
2022-12-17T11:23:09.202Z,3.40
2022-12-17T11:24:09.293Z,2.80
2022-12-17T11:25:09.183Z,2.80
2022-12-17T11:26:09.175Z,2.60
2022-12-17T11:27:09.163Z,2.60
2022-12-17T11:28:09.153Z,2.50
2022-12-17T11:29:09.247Z,2.70
2022-12-17T11:30:09.241Z,2.80
2022-12-17T11:31:09.180Z,3.00
2022-12-17T11:32:09.108Z,2.70
2022-12-17T11:33:09.097Z,2.90
2022-12-17T11:34:09.086Z,2.60
2022-12-17T11:35:09.075Z,2.90
2022-12-17T11:36:09.077Z,2.60
2022-12-17T11:37:09.058Z,2.50
2022-12-17T11:38:09.147Z,2.60
2022-12-17T11:39:09.034Z,2.50
2022-12-17T11:40:09.027Z,2.80
2022-12-17T11:41:09.013Z,2.50
2022-12-17T11:42:11.390Z,2.80
2022-12-17T11:43:09.003Z,2.90
2022-12-17T11:44:09.001Z,2.60
2022-12-17T11:45:08.993Z,2.40
2022-12-17T11:46:09.023Z,2.50
2022-12-17T11:47:08.946Z,2.70
2022-12-17T11:48:08.938Z,2.70
2022-12-17T11:49:08.923Z,2.50
2022-12-17T11:50:08.931Z,2.60
2022-12-17T11:51:08.904Z,2.40
2022-12-17T11:52:08.891Z,2.50
2022-12-17T11:53:08.880Z,2.60
2022-12-17T11:54:08.867Z,2.40
2022-12-17T11:55:08.860Z,2.70
2022-12-17T11:56:08.863Z,2.20
2022-12-17T11:57:08.842Z,2.10
2022-12-17T11:58:08.839Z,2.30
2022-12-17T11:59:08.826Z,2.40
2022-12-17T12:00:08.805Z,2.10
2022-12-17T12:01:08.822Z,2.20
2022-12-17T12:02:08.799Z,2.10
2022-12-17T12:03:08.895Z,2.00
2022-12-17T12:04:08.815Z,2.00
2022-12-17T12:05:08.750Z,2.00
2022-12-17T12:06:08.738Z,2.10
2022-12-17T12:07:08.752Z,2.20
2022-12-17T12:08:08.715Z,2.00
2022-12-17T12:09:08.703Z,1.80
2022-12-17T12:10:08.697Z,1.80
2022-12-17T12:11:08.680Z,2.00
2022-12-17T12:12:08.670Z,1.90
2022-12-17T12:13:08.698Z,2.10
2022-12-17T12:14:08.645Z,1.80
2022-12-17T12:15:08.640Z,2.10
2022-12-17T12:16:08.676Z,2.10
2022-12-17T12:17:08.658Z,2.20
2022-12-17T12:18:08.605Z,2.10
2022-12-17T12:19:08.640Z,1.90
2022-12-17T12:20:08.583Z,2.10
2022-12-17T12:21:08.572Z,2.00
2022-12-17T12:22:08.560Z,1.80
2022-12-17T12:23:08.558Z,1.90
2022-12-17T12:24:08.546Z,1.90
2022-12-17T12:25:08.530Z,1.70
2022-12-17T12:26:08.529Z,1.90
2022-12-17T12:27:08.505Z,1.70
2022-12-17T12:28:08.503Z,1.70
2022-12-17T12:29:08.482Z,1.50
2022-12-17T12:30:08.487Z,1.80
2022-12-17T12:31:08.523Z,1.60
2022-12-17T12:32:08.457Z,1.60
2022-12-17T12:33:10.323Z,1.80
2022-12-17T12:34:08.431Z,1.60
2022-12-17T12:35:08.427Z,1.80
2022-12-17T12:36:08.416Z,1.80
2022-12-17T12:37:08.396Z,1.80
2022-12-17T12:38:08.382Z,2.00
2022-12-17T12:39:08.377Z,4.20
2022-12-17T12:40:08.363Z,1.80
2022-12-17T12:41:08.365Z,2.30
2022-12-17T12:42:08.401Z,2.40
2022-12-17T12:43:08.331Z,3.30
2022-12-17T12:44:08.351Z,5.60
2022-12-17T12:45:08.315Z,4.10
2022-12-17T12:46:08.441Z,2.80
2022-12-17T12:47:08.286Z,1.90
2022-12-17T12:48:08.328Z,2.10
2022-12-17T12:49:08.335Z,2.50
2022-12-17T12:50:08.264Z,2.90
2022-12-17T12:51:08.277Z,3.00
2022-12-17T12:52:08.248Z,2.60
2022-12-17T12:53:08.243Z,2.70
2022-12-17T12:54:08.240Z,3.20
2022-12-17T12:55:08.236Z,3.20
2022-12-17T12:56:08.218Z,3.10
2022-12-17T12:57:11.018Z,3.20
2022-12-17T12:58:08.175Z,3.20
2022-12-17T12:59:08.164Z,2.70
2022-12-17T13:00:08.229Z,3.20
2022-12-17T13:01:08.434Z,3.40
2022-12-17T13:02:08.247Z,3.60